createdAt,value
2022-10-13T00:01:23.869Z,425.27
2022-10-13T00:03:52.685Z,434.08
2022-10-13T00:06:27.022Z,420.90
2022-10-13T00:08:56.835Z,434.83
2022-10-13T00:11:30.419Z,417.50
2022-10-13T00:14:03.575Z,426.83
2022-10-13T00:16:34.570Z,414.70
2022-10-13T00:19:02.658Z,424.35
2022-10-13T00:21:30.728Z,419.92
2022-10-13T00:23:58.879Z,421.42
2022-10-13T00:26:27.975Z,420.92
2022-10-13T00:28:57.071Z,418.35
2022-10-13T00:31:32.051Z,422.70
2022-10-13T00:34:01.969Z,429.02
2022-10-13T00:36:30.680Z,424.60
2022-10-13T00:38:58.884Z,422.80
2022-10-13T00:41:27.028Z,422.42
2022-10-13T00:43:57.360Z,428.17
2022-10-13T00:46:29.794Z,424.95
2022-10-13T00:49:06.052Z,425.50
2022-10-13T00:51:40.214Z,426.85
2022-10-13T00:54:10.703Z,424.20
2022-10-13T00:56:39.735Z,422.15
2022-10-13T00:59:23.211Z,425.67
2022-10-13T01:01:54.844Z,434.90
2022-10-13T01:04:27.406Z,424.48
2022-10-13T01:06:57.007Z,422.65
2022-10-13T01:09:25.087Z,420.67
2022-10-13T01:12:43.697Z,420.33
2022-10-13T01:15:19.097Z,422.70
2022-10-13T01:17:58.893Z,416.55
2022-10-13T01:20:47.542Z,416.80
2022-10-13T01:23:39.785Z,425.27
2022-10-13T01:26:54.765Z,424.95
2022-10-13T01:29:43.946Z,420.95
2022-10-13T01:32:32.598Z,420.65
2022-10-13T01:35:21.018Z,422.73
2022-10-13T01:37:58.186Z,424.50
2022-10-13T01:40:31.811Z,420.83
2022-10-13T01:43:12.900Z,418.08
2022-10-13T01:45:51.174Z,418.42
2022-10-13T01:48:20.552Z,423.25
2022-10-13T01:50:54.218Z,423.65
2022-10-13T01:53:23.597Z,421.30
2022-10-13T01:56:00.229Z,440.67
2022-10-13T01:58:33.604Z,423.05
2022-10-13T02:01:19.685Z,412.83
2022-10-13T02:04:43.436Z,429.52
2022-10-13T02:07:28.415Z,416.20
2022-10-13T02:10:17.284Z,416.15
2022-10-13T02:12:53.848Z,420.88
2022-10-13T02:15:47.829Z,424.30
2022-10-13T02:18:22.714Z,423.60
2022-10-13T02:20:52.438Z,437.73
2022-10-13T02:23:20.932Z,430.40
2022-10-13T02:25:51.016Z,429.17
2022-10-13T02:28:19.787Z,416.08
2022-10-13T02:30:47.821Z,428.75
2022-10-13T02:33:16.684Z,420.63
2022-10-13T02:35:44.823Z,423.27
2022-10-13T02:38:12.971Z,419.50
2022-10-13T02:40:41.002Z,418.30
2022-10-13T02:43:09.665Z,448.45
2022-10-13T02:45:38.095Z,421.13
2022-10-13T02:48:06.443Z,424.25
2022-10-13T02:50:34.564Z,418.77
2022-10-13T02:53:02.567Z,419.27
2022-10-13T02:55:30.590Z,416.75
2022-10-13T02:57:58.468Z,431.23
2022-10-13T03:00:26.604Z,431.58
2022-10-13T03:02:54.576Z,419.75
2022-10-13T03:05:22.688Z,432.50
2022-10-13T03:07:50.672Z,425.77
2022-10-13T03:10:18.690Z,415.42
2022-10-13T03:12:46.719Z,413.73
2022-10-13T03:15:14.879Z,416.75
2022-10-13T03:17:42.813Z,417.25
2022-10-13T03:20:10.949Z,413.23
2022-10-13T03:22:38.881Z,417.65
2022-10-13T03:25:07.592Z,416.77
2022-10-13T03:27:36.180Z,434.77
2022-10-13T03:30:04.840Z,417.85
2022-10-13T03:32:33.982Z,413.10
2022-10-13T03:35:01.893Z,417.08
2022-10-13T03:37:30.869Z,430.60
2022-10-13T03:39:58.823Z,415.38
2022-10-13T03:42:28.108Z,417.65
2022-10-13T03:44:56.670Z,412.20
2022-10-13T03:47:24.834Z,428.70
2022-10-13T03:49:55.331Z,419.02
2022-10-13T03:52:24.044Z,424.63
2022-10-13T03:54:52.089Z,426.52
2022-10-13T03:57:20.095Z,414.10
2022-10-13T03:59:48.016Z,421.88
2022-10-13T04:02:16.054Z,418.98
2022-10-13T04:04:44.014Z,430.30
2022-10-13T04:07:12.010Z,425.73
2022-10-13T04:09:40.459Z,431.63
2022-10-13T04:12:08.620Z,432.88
2022-10-13T04:14:36.530Z,420.40
2022-10-13T04:17:09.147Z,436.40
2022-10-13T04:19:37.087Z,423.08
2022-10-13T04:22:06.610Z,423.60
2022-10-13T04:24:34.555Z,425.52
2022-10-13T04:27:03.294Z,412.63
2022-10-13T04:29:31.855Z,419.90
2022-10-13T04:32:00.750Z,414.40
2022-10-13T04:34:28.775Z,420.50
2022-10-13T04:36:57.286Z,420.48
2022-10-13T04:39:25.307Z,427.83
2022-10-13T04:41:53.298Z,431.15
2022-10-13T04:44:21.485Z,424.73
2022-10-13T04:46:49.345Z,421.85
2022-10-13T04:49:17.886Z,419.95
2022-10-13T04:51:45.829Z,422.30
2022-10-13T04:54:14.585Z,414.30
2022-10-13T04:56:45.869Z,421.75
2022-10-13T04:59:13.827Z,417.25
2022-10-13T05:01:42.259Z,419.63
2022-10-13T05:04:14.381Z,422.10
2022-10-13T05:07:12.619Z,421.27
2022-10-13T05:09:31.512Z,416.20
2022-10-13T05:11:59.467Z,417.15
2022-10-13T05:14:27.944Z,437.52
2022-10-13T05:16:56.090Z,436.98
2022-10-13T05:19:24.418Z,426.67
2022-10-13T05:21:53.353Z,425.30
2022-10-13T05:24:31.154Z,421.35
2022-10-13T05:26:59.242Z,418.90
2022-10-13T05:29:27.369Z,440.80
2022-10-13T05:31:55.424Z,419.13
2022-10-13T05:34:23.415Z,417.77
2022-10-13T05:36:51.362Z,420.35
2022-10-13T05:39:19.354Z,423.08
2022-10-13T05:41:47.297Z,424.77
2022-10-13T05:44:22.083Z,419.88
2022-10-13T05:46:57.358Z,410.27
2022-10-13T05:49:25.420Z,417.08
2022-10-13T05:52:00.273Z,417.70
2022-10-13T05:54:44.237Z,425.17
2022-10-13T05:57:17.436Z,419.40
2022-10-13T05:59:53.137Z,418.27
2022-10-13T06:02:25.288Z,414.58
2022-10-13T06:04:56.147Z,414.77
2022-10-13T06:07:24.891Z,419.65
2022-10-13T06:09:53.221Z,415.77
2022-10-13T06:12:21.537Z,417.38
2022-10-13T06:14:49.664Z,422.45
2022-10-13T06:17:17.687Z,422.75
2022-10-13T06:19:47.951Z,419.35
2022-10-13T06:22:15.923Z,421.40
2022-10-13T06:24:45.817Z,422.08
2022-10-13T06:27:13.998Z,410.70
2022-10-13T06:29:42.015Z,412.50
2022-10-13T06:32:10.334Z,417.08
2022-10-13T06:34:38.436Z,421.75
2022-10-13T06:37:16.346Z,422.10
2022-10-13T06:39:44.373Z,427.73
2022-10-13T06:42:12.569Z,418.08
2022-10-13T06:44:43.671Z,447.63
2022-10-13T06:47:11.708Z,413.33
2022-10-13T06:49:39.650Z,415.00
2022-10-13T06:52:12.255Z,416.05
2022-10-13T06:54:40.761Z,421.02
2022-10-13T06:57:09.230Z,419.13
2022-10-13T06:59:37.538Z,412.33
2022-10-13T07:02:06.547Z,413.33
2022-10-13T07:04:34.650Z,414.50
2022-10-13T07:07:03.403Z,423.33
2022-10-13T07:09:32.474Z,414.00
2022-10-13T07:12:00.661Z,421.25
2022-10-13T07:14:28.842Z,419.58
2022-10-13T07:16:56.867Z,418.30
2022-10-13T07:19:26.134Z,419.92
2022-10-13T07:21:54.299Z,436.58
2022-10-13T07:24:25.865Z,421.52
2022-10-13T07:26:54.848Z,426.55
2022-10-13T07:29:22.846Z,423.20
2022-10-13T07:31:51.280Z,420.90
2022-10-13T07:34:19.268Z,417.98
2022-10-13T07:36:47.436Z,425.27
2022-10-13T07:39:15.462Z,425.00
2022-10-13T07:41:46.413Z,428.63
2022-10-13T07:44:18.330Z,428.05
2022-10-13T07:46:46.279Z,425.38
2022-10-13T07:49:16.219Z,426.88
2022-10-13T07:51:47.639Z,428.20
2022-10-13T07:54:23.834Z,426.60
2022-10-13T07:56:56.577Z,427.45
2022-10-13T07:59:24.764Z,434.58
2022-10-13T08:01:52.834Z,430.00
2022-10-13T08:04:21.005Z,438.45
2022-10-13T08:06:49.162Z,435.35
2022-10-13T08:09:17.134Z,431.45
2022-10-13T08:11:45.072Z,434.52
2022-10-13T08:14:14.111Z,441.60
2022-10-13T08:16:48.619Z,435.38
2022-10-13T08:19:23.406Z,436.92
2022-10-13T08:21:59.985Z,431.02
2022-10-13T08:24:28.721Z,442.63
2022-10-13T08:26:57.062Z,436.38
2022-10-13T08:29:25.122Z,442.20
2022-10-13T08:31:53.983Z,434.75
2022-10-13T08:34:28.001Z,441.65
2022-10-13T08:36:57.452Z,441.80
2022-10-13T08:39:25.841Z,442.85
2022-10-13T08:41:55.058Z,445.33
2022-10-13T08:45:10.958Z,437.73
2022-10-13T08:47:33.781Z,452.00
2022-10-13T08:50:10.852Z,439.15
2022-10-13T08:53:05.701Z,439.20
2022-10-13T08:56:03.045Z,433.20
2022-10-13T08:58:35.286Z,441.15
2022-10-13T09:01:31.879Z,437.52
2022-10-13T09:04:27.069Z,445.88
2022-10-13T09:06:59.160Z,441.33
2022-10-13T09:09:27.355Z,446.70
2022-10-13T09:11:55.472Z,446.48
2022-10-13T09:14:30.620Z,456.83
2022-10-13T09:17:17.917Z,441.10
2022-10-13T09:20:23.253Z,454.08
2022-10-13T09:23:19.717Z,441.42
2022-10-13T09:25:53.042Z,441.83
2022-10-13T09:28:31.392Z,440.15
2022-10-13T09:31:18.665Z,446.55
2022-10-13T09:33:59.609Z,449.70
2022-10-13T09:36:30.070Z,450.55
2022-10-13T09:39:15.624Z,494.67
2022-10-13T09:41:45.922Z,453.50
2022-10-13T09:44:30.454Z,447.67
2022-10-13T09:47:01.885Z,449.05
2022-10-13T09:49:40.520Z,447.60
2022-10-13T09:52:19.628Z,455.33
2022-10-13T09:54:59.828Z,453.05
2022-10-13T09:57:44.218Z,469.45
2022-10-13T10:00:27.219Z,453.83
2022-10-13T10:03:13.583Z,452.77
2022-10-13T10:05:51.643Z,444.27
2022-10-13T10:09:03.382Z,449.67
2022-10-13T10:11:46.687Z,453.63
2022-10-13T10:14:34.979Z,450.75
2022-10-13T10:17:11.675Z,451.55
2022-10-13T10:19:59.377Z,447.17
2022-10-13T10:23:07.553Z,452.48
2022-10-13T10:25:51.183Z,448.75
2022-10-13T10:28:43.746Z,447.25
2022-10-13T10:31:36.286Z,457.38
2022-10-13T10:34:37.062Z,451.02
2022-10-13T10:37:04.937Z,465.25
2022-10-13T10:39:49.107Z,461.42
2022-10-13T10:42:27.820Z,469.10
2022-10-13T10:44:57.798Z,470.52
2022-10-13T10:47:30.414Z,483.10
2022-10-13T10:50:05.757Z,474.52
2022-10-13T10:52:58.894Z,471.08
2022-10-13T10:55:43.968Z,479.98
2022-10-13T10:58:27.291Z,486.13
2022-10-13T11:01:06.212Z,494.17
2022-10-13T11:04:29.914Z,496.85
2022-10-13T11:06:59.491Z,498.38
2022-10-13T11:09:42.489Z,513.83
2022-10-13T11:12:25.375Z,535.60
2022-10-13T11:15:33.739Z,543.22
2022-10-13T11:18:01.760Z,541.25
2022-10-13T11:20:35.756Z,556.60
2022-10-13T11:23:03.676Z,569.95
2022-10-13T11:25:35.763Z,577.80
2022-10-13T11:28:26.627Z,583.83
2022-10-13T11:31:13.707Z,590.35
2022-10-13T11:33:41.676Z,657.95
2022-10-13T11:36:31.500Z,710.45
2022-10-13T11:39:04.897Z,624.88
2022-10-13T11:42:01.323Z,640.03
2022-10-13T11:44:56.206Z,634.83
2022-10-13T11:47:54.368Z,734.45
2022-10-13T11:51:16.686Z,641.63
2022-10-13T11:54:04.598Z,650.97
2022-10-13T11:56:39.708Z,669.40
2022-10-13T11:59:35.101Z,675.97
2022-10-13T12:02:13.986Z,673.95
2022-10-13T12:04:59.445Z,686.10
2022-10-13T12:07:35.789Z,694.97
2022-10-13T12:10:08.144Z,701.45
2022-10-13T12:12:36.516Z,713.10
2022-10-13T12:15:38.566Z,718.00
2022-10-13T12:18:27.719Z,713.65
2022-10-13T12:20:59.341Z,732.67
2022-10-13T12:23:28.637Z,731.20
2022-10-13T12:25:58.328Z,740.72
2022-10-13T12:28:31.462Z,752.65
2022-10-13T12:31:00.571Z,760.17
2022-10-13T12:33:33.084Z,763.20
2022-10-13T12:36:18.916Z,821.80
2022-10-13T12:38:51.854Z,764.25
2022-10-13T12:41:27.187Z,777.25
2022-10-13T12:43:56.235Z,781.25
2022-10-13T12:46:49.641Z,788.65
2022-10-13T12:49:28.414Z,785.70
2022-10-13T12:52:24.034Z,795.78
2022-10-13T12:54:56.188Z,792.97
2022-10-13T12:57:42.038Z,805.83
2022-10-13T13:00:19.824Z,807.33
2022-10-13T13:02:59.503Z,814.65
2022-10-13T13:05:31.589Z,816.00
2022-10-13T13:08:20.753Z,815.40
2022-10-13T13:11:00.152Z,813.25
2022-10-13T13:13:29.491Z,815.05
2022-10-13T13:16:22.041Z,808.83
2022-10-13T13:18:51.579Z,811.33
2022-10-13T13:21:20.789Z,810.15
2022-10-13T13:23:53.698Z,811.05
2022-10-13T13:26:23.930Z,815.47
2022-10-13T13:28:56.989Z,807.30
2022-10-13T13:31:26.295Z,809.35
2022-10-13T13:33:54.302Z,808.53
2022-10-13T13:36:26.720Z,802.80
2022-10-13T13:38:55.363Z,803.25
2022-10-13T13:41:27.873Z,800.58
2022-10-13T13:43:55.912Z,804.67
2022-10-13T13:46:32.301Z,806.60
2022-10-13T13:49:00.417Z,805.85
2022-10-13T13:51:28.518Z,806.13
2022-10-13T13:53:56.914Z,811.33
2022-10-13T13:56:25.345Z,808.35
2022-10-13T13:58:53.297Z,819.42
2022-10-13T14:01:21.714Z,826.08
2022-10-13T14:04:23.067Z,828.83
2022-10-13T14:06:48.594Z,813.30
2022-10-13T14:09:16.926Z,829.17
2022-10-13T14:11:44.990Z,826.22
2022-10-13T14:14:13.209Z,831.55
2022-10-13T14:16:41.778Z,832.83
2022-10-13T14:19:10.602Z,827.38
2022-10-13T14:21:38.715Z,831.72
2022-10-13T14:24:11.876Z,820.80
2022-10-13T14:26:40.048Z,825.17
2022-10-13T14:29:08.459Z,820.58
2022-10-13T14:31:36.922Z,822.63
2022-10-13T14:34:05.321Z,813.58
2022-10-13T14:36:34.413Z,809.10
2022-10-13T14:39:02.521Z,817.63
2022-10-13T14:41:30.933Z,812.53
2022-10-13T14:43:58.976Z,805.80
2022-10-13T14:46:27.134Z,823.03
2022-10-13T14:48:58.961Z,818.78
2022-10-13T14:51:27.069Z,806.45
2022-10-13T14:53:55.318Z,790.55
2022-10-13T14:56:25.558Z,790.75
2022-10-13T14:58:58.802Z,778.70
2022-10-13T15:01:33.592Z,779.67
2022-10-13T15:04:02.548Z,784.35
2022-10-13T15:06:33.337Z,783.88
2022-10-13T15:09:01.783Z,771.75
2022-10-13T15:11:29.968Z,772.13
2022-10-13T15:13:57.955Z,777.30
2022-10-13T15:16:29.490Z,770.80
2022-10-13T15:18:57.591Z,760.00
2022-10-13T15:21:25.613Z,761.42
2022-10-13T15:23:53.603Z,765.13
2022-10-13T15:26:21.877Z,756.13
2022-10-13T15:28:52.832Z,755.50
2022-10-13T15:31:23.003Z,748.88
2022-10-13T15:33:53.901Z,741.78
2022-10-13T15:36:23.911Z,746.22
2022-10-13T15:38:52.470Z,742.58
2022-10-13T15:41:23.040Z,733.38
2022-10-13T15:43:52.034Z,736.47
2022-10-13T15:46:24.491Z,734.45
2022-10-13T15:48:55.422Z,722.80
2022-10-13T15:51:24.638Z,726.78
2022-10-13T15:53:52.682Z,729.40
2022-10-13T15:56:20.710Z,734.10
2022-10-13T15:58:49.081Z,709.63
2022-10-13T16:01:17.640Z,712.70
2022-10-13T16:03:45.771Z,752.60
2022-10-13T16:06:14.621Z,710.35
2022-10-13T16:08:49.927Z,700.60
2022-10-13T16:11:20.558Z,700.33
2022-10-13T16:13:51.831Z,701.38
2022-10-13T16:16:21.111Z,705.67
2022-10-13T16:18:51.026Z,696.58
2022-10-13T16:21:24.168Z,689.67
2022-10-13T16:23:52.761Z,688.75
2022-10-13T16:26:20.964Z,690.72
2022-10-13T16:28:49.212Z,688.33
2022-10-13T16:31:18.196Z,684.72
2022-10-13T16:33:46.987Z,679.78
2022-10-13T16:36:19.013Z,683.58
2022-10-13T16:38:48.802Z,677.47
2022-10-13T16:41:18.858Z,678.97
2022-10-13T16:43:51.026Z,673.45
2022-10-13T16:46:23.076Z,672.78
2022-10-13T16:48:51.368Z,670.72
2022-10-13T16:51:23.524Z,666.53
2022-10-13T16:53:58.731Z,664.38
2022-10-13T16:56:31.337Z,657.40
2022-10-13T16:59:03.400Z,665.92
2022-10-13T17:01:33.911Z,661.63
2022-10-13T17:04:03.751Z,655.53
2022-10-13T17:06:32.051Z,652.60
2022-10-13T17:09:03.470Z,663.05
2022-10-13T17:11:37.918Z,641.60
2022-10-13T17:14:06.891Z,648.33
2022-10-13T17:16:36.037Z,647.83
2022-10-13T17:19:07.043Z,642.63
2022-10-13T17:21:37.693Z,639.33
2022-10-13T17:24:08.633Z,641.63
2022-10-13T17:26:36.932Z,638.13
2022-10-13T17:29:08.176Z,631.80
2022-10-13T17:31:36.513Z,631.58
2022-10-13T17:34:06.412Z,625.95
2022-10-13T17:36:34.639Z,618.53
2022-10-13T17:39:13.559Z,611.35
2022-10-13T17:41:44.559Z,608.33
2022-10-13T17:44:12.716Z,608.88
2022-10-13T17:46:40.858Z,605.95
2022-10-13T17:49:12.058Z,607.65
2022-10-13T17:51:44.162Z,601.47
2022-10-13T17:54:16.454Z,604.97
2022-10-13T17:56:48.963Z,603.95
2022-10-13T17:59:17.995Z,607.65
2022-10-13T18:01:49.701Z,600.88
2022-10-13T18:04:22.703Z,593.45
2022-10-13T18:06:53.536Z,607.63
2022-10-13T18:09:24.614Z,592.95
2022-10-13T18:11:54.397Z,598.33
2022-10-13T18:14:24.992Z,605.60
2022-10-13T18:16:54.156Z,587.22
2022-10-13T18:19:22.804Z,600.80
2022-10-13T18:21:53.259Z,586.10
2022-10-13T18:24:21.972Z,591.25
2022-10-13T18:26:52.865Z,578.63
2022-10-13T18:29:23.599Z,586.28
2022-10-13T18:31:54.897Z,580.80
2022-10-13T18:34:37.159Z,587.60
2022-10-13T18:37:06.796Z,591.30
2022-10-13T18:39:35.827Z,582.15
2022-10-13T18:42:08.079Z,580.65
2022-10-13T18:44:38.541Z,574.50
2022-10-13T18:47:13.696Z,592.22
2022-10-13T18:49:41.822Z,576.85
2022-10-13T18:52:09.893Z,583.20
2022-10-13T18:54:40.762Z,577.97
2022-10-13T18:57:08.801Z,568.50
2022-10-13T18:59:38.798Z,585.25
2022-10-13T19:02:06.976Z,571.38
2022-10-13T19:04:36.144Z,579.67
2022-10-13T19:07:04.444Z,576.90
2022-10-13T19:09:32.877Z,578.53
2022-10-13T19:12:00.796Z,567.67
2022-10-13T19:14:30.687Z,568.83
2022-10-13T19:17:02.022Z,561.13
2022-10-13T19:19:30.960Z,564.22
2022-10-13T19:22:01.578Z,584.08
2022-10-13T19:24:29.717Z,569.08
2022-10-13T19:26:58.166Z,561.50
2022-10-13T19:29:26.172Z,569.90
2022-10-13T19:31:54.230Z,557.47
2022-10-13T19:34:22.524Z,560.72
2022-10-13T19:36:50.702Z,563.00
2022-10-13T19:39:24.416Z,560.97
2022-10-13T19:41:55.816Z,556.45
2022-10-13T19:44:25.352Z,551.42
2022-10-13T19:46:54.006Z,566.53
2022-10-13T19:49:26.386Z,565.08
2022-10-13T19:51:54.975Z,550.25
2022-10-13T19:54:23.995Z,562.70
2022-10-13T19:56:52.067Z,555.97
2022-10-13T19:59:20.384Z,558.00
2022-10-13T20:01:48.505Z,558.95
2022-10-13T20:04:20.537Z,557.83
2022-10-13T20:06:50.595Z,560.33
2022-10-13T20:09:19.366Z,549.85
2022-10-13T20:11:50.246Z,558.47
2022-10-13T20:14:18.994Z,554.90
2022-10-13T20:16:47.838Z,543.92
2022-10-13T20:19:19.621Z,544.40
2022-10-13T20:21:51.859Z,542.85
2022-10-13T20:24:21.814Z,539.20
2022-10-13T20:26:50.401Z,544.30
2022-10-13T20:29:23.373Z,540.42
2022-10-13T20:31:51.449Z,542.20
2022-10-13T20:34:19.416Z,546.35
2022-10-13T20:36:50.070Z,543.63
2022-10-13T20:39:18.071Z,536.80
2022-10-13T20:41:46.152Z,540.88
2022-10-13T20:44:15.221Z,545.38
2022-10-13T20:46:43.263Z,543.97
2022-10-13T20:49:12.753Z,555.38
2022-10-13T20:51:43.083Z,548.03
2022-10-13T20:54:13.315Z,532.45
2022-10-13T20:56:41.967Z,536.53
2022-10-13T20:59:14.820Z,540.47
2022-10-13T21:01:45.026Z,533.83
2022-10-13T21:04:13.045Z,536.35
2022-10-13T21:06:42.384Z,536.55
2022-10-13T21:09:10.954Z,539.03
2022-10-13T21:11:41.784Z,533.35
2022-10-13T21:14:10.689Z,535.28
2022-10-13T21:16:39.377Z,538.38
2022-10-13T21:19:09.670Z,529.35
2022-10-13T21:21:38.120Z,521.92
2022-10-13T21:24:08.135Z,531.65
2022-10-13T21:26:37.229Z,531.53
2022-10-13T21:29:05.874Z,531.90
2022-10-13T21:31:35.904Z,530.50
2022-10-13T21:34:04.209Z,526.60
2022-10-13T21:36:33.709Z,529.38
2022-10-13T21:39:04.789Z,528.38
2022-10-13T21:41:33.875Z,525.20
2022-10-13T21:44:02.221Z,526.45
2022-10-13T21:46:34.200Z,520.83
2022-10-13T21:49:05.525Z,534.20
2022-10-13T21:51:37.125Z,525.78
2022-10-13T21:54:10.598Z,530.58
2022-10-13T21:56:40.179Z,516.17
2022-10-13T21:59:11.016Z,530.58
2022-10-13T22:01:39.570Z,522.83
2022-10-13T22:04:13.347Z,523.08
2022-10-13T22:06:41.896Z,519.65
2022-10-13T22:09:10.535Z,520.05
2022-10-13T22:11:40.335Z,518.95
2022-10-13T22:14:17.318Z,523.08
2022-10-13T22:16:49.067Z,531.75
2022-10-13T22:19:18.959Z,513.20
2022-10-13T22:21:49.514Z,515.17
2022-10-13T22:24:20.912Z,522.53
2022-10-13T22:26:50.082Z,516.20
2022-10-13T22:29:21.630Z,516.03
2022-10-13T22:31:51.714Z,512.55
2022-10-13T22:34:20.263Z,515.78
2022-10-13T22:36:48.273Z,512.47
2022-10-13T22:39:16.641Z,521.13
2022-10-13T22:41:44.834Z,512.70
2022-10-13T22:44:13.736Z,529.22
2022-10-13T22:46:41.752Z,516.67
2022-10-13T22:49:14.807Z,515.15
2022-10-13T22:51:42.824Z,520.33
2022-10-13T22:54:11.242Z,508.85
2022-10-13T22:56:40.846Z,512.47
2022-10-13T22:59:09.937Z,514.22
2022-10-13T23:01:37.864Z,507.33
2022-10-13T23:04:06.515Z,515.60
2022-10-13T23:06:35.702Z,518.75
2022-10-13T23:09:10.287Z,513.83
2022-10-13T23:11:39.139Z,501.42
2022-10-13T23:14:09.221Z,511.77
2022-10-13T23:16:37.430Z,510.05
2022-10-13T23:19:05.451Z,514.53
2022-10-13T23:21:33.478Z,515.88
2022-10-13T23:24:05.019Z,508.40
2022-10-13T23:26:34.674Z,511.00
2022-10-13T23:29:03.265Z,513.85
2022-10-13T23:31:31.370Z,506.83
2022-10-13T23:33:59.733Z,500.23
2022-10-13T23:36:31.634Z,506.98
2022-10-13T23:39:07.321Z,499.13
2022-10-13T23:41:35.356Z,493.40
2022-10-13T23:44:03.672Z,500.42
2022-10-13T23:46:31.752Z,496.45
2022-10-13T23:48:59.677Z,498.90
2022-10-13T23:51:27.758Z,496.77
2022-10-13T23:53:56.836Z,500.02
2022-10-13T23:56:25.586Z,504.25
2022-10-13T23:58:53.732Z,500.13
